ADDS METAR Data INFO
IDs: Format: Raw Decoded Include TAF

Data at: 0504 UTC 21 Feb 2018

KSOP 201504Z AUTO 32003KT 3/4SM BR OVC002 15/15 A3048 RMK AO2
KSOP 201456Z AUTO VRB03KT 1/4SM FG OVC002 16/16 A3048 RMK AO2 SLP341 T01610161 51014
KSOP 201356Z AUTO 00000KT M1/4SM FG OVC002 14/14 A3047 RMK AO2 SLP339 T01390139
KSOP 201256Z AUTO 00000KT M1/4SM FG OVC002 12/12 A3047 RMK AO2 SLP337 T01220122
KSOP 201156Z AUTO 00000KT M1/4SM FG OVC002 11/11 A3044 RMK AO2 SLP328 T01110111 10117 20106 53008
KSOP 201056Z AUTO 00000KT 1/4SM FG OVC002 11/11 A3043 RMK AO2 SLP325 T01110111
KSOP 200956Z AUTO 00000KT 1/4SM FG OVC002 11/11 A3042 RMK AO2 SLP322 T01060106
KSOP 200856Z AUTO 00000KT 1/4SM FG OVC002 11/11 A3041 RMK AO2 SLP320 T01060106 58007
KSOP 200756Z AUTO 00000KT 1/4SM FG OVC002 11/11 A3042 RMK AO2 SLP322 T01060106
KSOP 200713Z AUTO 00000KT 1/4SM FG OVC002 11/11 A3043 RMK AO2
KSOP 200656Z AUTO 00000KT 1/2SM FG OVC002 11/11 A3044 RMK AO2 SLP329 T01060106
KSOP 200638Z AUTO 00000KT 1/2SM FG OVC002 11/11 A3044 RMK AO2
KSOP 200617Z AUTO 00000KT 1/2SM FG OVC004 11/11 A3043 RMK AO2
KSOP 200605Z AUTO 00000KT 1SM BR OVC004 11/11 A3044 RMK AO2
KSOP 200556Z AUTO 00000KT 2SM BR OVC004 11/11 A3044 RMK AO2 SLP328 T01060106 10106 20100 57002
KSOP 200550Z AUTO 00000KT 2 1/2SM BR OVC004 11/11 A3044 RMK AO2
KSOP 200511Z AUTO 00000KT 4SM BR OVC004 11/11 A3044 RMK AO2 CIG 003V008
KSOP 200456Z AUTO 00000KT 3SM BR SCT004 OVC009 11/11 A3044 RMK AO2 CIG 007V012 SLP330 T01060106 401170067
KSOP 200431Z AUTO 00000KT 4SM BR FEW003 OVC012 11/11 A3044 RMK AO2
KSOP 200416Z AUTO 00000KT 3SM BR BKN003 OVC010 11/11 A3044 RMK AO2
KSOP 200356Z AUTO 00000KT 2 1/2SM BR OVC003 11/11 A3044 RMK AO2 SLP329 T01060106
KSOP 200354Z AUTO 00000KT 2 1/2SM BR OVC003 10/10 A3044 RMK AO2
KSOP 200313Z AUTO 10003KT 1 1/4SM BR OVC003 11/11 A3043 RMK AO2
KSOP 200300Z AUTO 08003KT 2SM BR OVC003 11/11 A3043 RMK AO2
KSOP 200256Z AUTO 09003KT 1SM BR OVC003 11/11 A3043 RMK AO2 SLP324 T01060106 53008
KSOP 200156Z AUTO 00000KT 1/2SM FG OVC003 10/10 A3042 RMK AO2 SLP321 T01000100
KSOP 200136Z AUTO 00000KT 1/2SM FG OVC003 10/10 A3042 RMK AO2
KSOP 200110Z AUTO 00000KT 3/4SM BR OVC003 10/10 A3041 RMK AO2
KSOP 200056Z AUTO 00000KT 1 1/2SM BR OVC003 10/10 A3041 RMK AO2 VIS 1V2 SLP318 T01000100
KSOP 200041Z AUTO 00000KT 2 1/2SM BR OVC003 10/10 A3041 RMK AO2
KSOP 192356Z AUTO 00000KT 3SM BR OVC003 10/10 A3041 RMK AO2 SLP316 T01000100 10100 20083 51006
KSOP 192340Z AUTO 00000KT 2SM BR OVC003 10/10 A3040 RMK AO2
KSOP 192327Z AUTO 07003KT 1 3/4SM BR OVC003 10/10 A3040 RMK AO2
KSOP 192256Z AUTO 13003KT 2 1/2SM BR OVC003 10/10 A3040 RMK AO2 SLP314 T01000100
KSOP 192253Z AUTO 00000KT 2 1/2SM BR OVC003 10/10 A3040 RMK AO2
KSOP 192227Z AUTO 04003KT 3SM BR OVC003 10/10 A3039 RMK AO2 TSNO
KSOP 192156Z AUTO 08003KT 2SM BR OVC003 10/10 A3039 RMK AO2 SLP310 T01000100
KSOP 192120Z AUTO 00000KT 2SM BR OVC003 10/10 A3039 RMK AO2
KSOP 192056Z AUTO 03003KT 3SM BR OVC003 10/10 A3039 RMK AO2 SLP311 T01000100 55003
KSOP 192015Z AUTO 03003KT 3SM BR OVC003 09/09 A3039 RMK AO2
KSOP 192009Z AUTO 00000KT 1 3/4SM BR OVC003 09/09 A3039 RMK AO2 VIS 1 1/4V2 1/2
KSOP 191956Z AUTO 00000KT 3SM BR OVC003 09/09 A3039 RMK AO2 SLP310 T00940094
KSOP 191946Z AUTO 00000KT 1 1/2SM BR OVC003 09/09 A3039 RMK AO2
KSOP 191927Z AUTO 36003KT 2 1/2SM BR OVC003 09/09 A3039 RMK AO2 VIS 2V4
KSOP 191909Z AUTO 00000KT 1 1/4SM BR OVC003 09/09 A3040 RMK AO2
KSOP 191856Z AUTO 00000KT 2SM BR OVC003 09/09 A3040 RMK AO2 VIS 1 1/2V3 SLP316 T00890089
KSOP 191838Z AUTO 06003KT 2SM BR OVC003 09/09 A3041 RMK AO2
KSOP 191804Z AUTO 05003KT 1 3/4SM BR OVC003 08/08 A3042 RMK AO2 VIS 1 1/4V3
KSOP 191756Z AUTO 02004KT 3SM BR OVC003 08/08 A3042 RMK AO2 SLP325 T00830083 10083 20067 58013
KSOP 191754Z AUTO VRB03KT 3SM BR OVC003 08/08 A3042 RMK AO2
KSOP 191745Z AUTO 00000KT 1 1/4SM BR OVC003 08/08 A3043 RMK AO2
KSOP 191732Z AUTO 01004KT 3/4SM BR OVC003 08/08 A3044 RMK AO2
KSOP 191723Z AUTO 01004KT 1 3/4SM BR OVC003 08/08 A3044 RMK AO2 VIS 1 1/4V4
KSOP 191713Z AUTO 02003KT 3SM BR OVC003 08/08 A3045 RMK AO2